Time;durP1;ratioP1;P1;durP2;ratioP2;P2;SDS_P1;SDS_P2;PMS_P1;PMS_P2;Temp;Humidity;BMP_temperature;BMP_pressure;BME280_temperature;BME280_humidity;BME280_pressure;Samples;Min_cycle;Max_cycle;Signal;HPM_P1;HPM_P2
2023/12/14 00:04:47;;;;;;;9.00;3.40;;;;;;;17.79;58.07;95616.53;10400058;28;20071;-29
2023/12/14 00:09:47;;;;;;;6.37;3.30;;;;;;;17.81;58.40;95619.88;10401525;28;20048;-30
2023/12/14 00:14:47;;;;;;;4.70;2.83;;;;;;;17.82;58.14;95626.63;10396419;28;21061;-30
2023/12/14 00:19:48;;;;;;;4.97;2.60;;;;;;;17.72;58.35;95618.31;10393967;28;20114;-29
2023/12/14 00:24:48;;;;;;;5.07;3.03;;;;;;;17.81;58.40;95646.03;10396497;28;20125;-30
2023/12/14 00:29:48;;;;;;;6.77;2.93;;;;;;;17.75;58.13;95637.72;10391508;28;20034;-31
2023/12/14 00:34:49;;;;;;;5.93;3.43;;;;;;;17.80;58.14;95651.09;10400275;28;20045;-29
2023/12/14 00:39:49;;;;;;;4.53;3.33;;;;;;;17.80;58.13;95658.72;10393381;28;20033;-29
2023/12/14 00:44:49;;;;;;;5.17;2.80;;;;;;;17.79;58.36;95664.63;10407710;28;20480;-30
2023/12/14 00:49:50;;;;;;;6.07;3.30;;;;;;;17.79;58.46;95677.28;10391763;28;20060;-30
2023/12/14 00:54:50;;;;;;;6.67;3.00;;;;;;;17.79;58.16;95682.34;10396750;28;20045;-30
2023/12/14 00:59:50;;;;;;;4.83;2.97;;;;;;;17.79;58.20;95692.47;10401064;28;20352;-30
2023/12/14 01:04:51;;;;;;;5.37;2.80;;;;;;;17.77;58.21;95696.72;10395154;28;20546;-30
2023/12/14 01:09:51;;;;;;;5.67;2.37;;;;;;;17.78;58.35;95706.00;10395691;28;20303;-30
2023/12/14 01:14:51;;;;;;;8.50;3.10;;;;;;;17.80;58.10;95709.34;10389982;28;20037;-30
2023/12/14 01:19:52;;;;;;;4.00;2.40;;;;;;;17.77;58.42;95710.25;10381388;28;20103;-29
2023/12/14 01:24:52;;;;;;;6.70;4.00;;;;;;;17.77;58.16;95725.44;10384809;28;20037;-29
2023/12/14 01:29:53;;;;;;;5.03;2.78;;;;;;;17.78;58.36;95736.38;10389437;28;20296;-30
2023/12/14 01:34:53;;;;;;;3.85;2.47;;;;;;;17.74;58.43;95735.56;10389914;28;20034;-29
2023/12/14 01:39:56;;;;;;;4.83;2.60;;;;;;;17.77;58.62;95754.97;10388133;28;20088;-30
2023/12/14 01:44:56;;;;;;;4.80;2.78;;;;;;;17.79;58.17;95763.38;10392736;28;20041;-29
2023/12/14 01:49:56;;;;;;;4.57;2.58;;;;;;;17.78;57.94;95761.69;10391202;28;20044;-29
2023/12/14 01:54:58;;;;;;;4.80;2.47;;;;;;;17.77;58.25;95772.69;10384578;28;20030;-30
2023/12/14 01:59:59;;;;;;;4.82;2.42;;;;;;;17.76;58.38;95778.59;10389722;28;20079;-29
2023/12/14 02:04:59;;;;;;;4.20;2.70;;;;;;;17.65;58.29;95770.31;10392513;28;20099;-29
2023/12/14 02:09:59;;;;;;;5.13;2.43;;;;;;;17.75;58.12;95785.34;10383013;28;20460;-30
2023/12/14 02:15:00;;;;;;;4.33;2.77;;;;;;;17.74;58.44;95800.56;10378581;28;20037;-29
2023/12/14 02:20:00;;;;;;;3.67;2.40;;;;;;;17.74;58.42;95798.03;10384010;28;20040;-30
2023/12/14 02:25:00;;;;;;;5.97;2.83;;;;;;;17.74;58.84;95805.63;10385420;28;20033;-29
2023/12/14 02:30:01;;;;;;;4.80;2.53;;;;;;;17.72;59.06;95812.38;10388316;28;20040;-29
2023/12/14 02:35:02;;;;;;;4.37;2.50;;;;;;;17.72;58.95;95814.91;10383267;28;20039;-30
2023/12/14 02:40:04;;;;;;;3.50;2.50;;;;;;;17.72;59.25;95815.78;10382297;28;20168;-29
2023/12/14 02:45:05;;;;;;;5.88;2.45;;;;;;;17.69;59.54;95825.09;10392291;28;20037;-29
2023/12/14 02:50:06;;;;;;;3.25;2.58;;;;;;;17.68;59.46;95836.06;10387882;28;20037;-29
2023/12/14 02:55:07;;;;;;;3.05;2.30;;;;;;;17.68;59.66;95841.13;10387386;28;20086;-30
2023/12/14 03:00:08;;;;;;;3.42;2.22;;;;;;;17.68;59.84;95838.59;10384125;28;20029;-29
2023/12/14 03:05:08;;;;;;;4.28;2.72;;;;;;;17.65;60.02;95846.25;10400196;28;20025;-31
2023/12/14 03:10:09;;;;;;;4.83;2.43;;;;;;;17.64;59.69;95859.72;10390948;28;20041;-29
2023/12/14 03:15:09;;;;;;;3.75;2.08;;;;;;;17.62;59.79;95858.91;10392305;28;20037;-29
2023/12/14 03:20:10;;;;;;;3.88;2.35;;;;;;;17.64;59.75;95874.91;10402578;28;20584;-31
2023/12/14 03:25:11;;;;;;;3.50;2.15;;;;;;;17.61;59.63;95880.88;10398221;28;20041;-31
2023/12/14 03:30:11;;;;;;;4.30;2.13;;;;;;;17.62;59.78;95889.28;10395396;28;20481;-30
2023/12/14 03:35:11;;;;;;;2.83;1.90;;;;;;;17.63;59.74;95891.81;10407384;28;20294;-29
2023/12/14 03:40:12;;;;;;;4.77;3.07;;;;;;;17.62;59.61;95894.34;10397362;28;20078;-29
2023/12/14 03:45:12;;;;;;;5.28;2.00;;;;;;;17.64;59.65;95908.66;10394068;28;20300;-29
2023/12/14 03:50:13;;;;;;;5.88;1.85;;;;;;;17.63;59.85;95909.53;10405468;28;20045;-30
2023/12/14 03:55:15;;;;;;;3.33;2.00;;;;;;;17.60;59.89;95909.56;10396532;28;20048;-30
2023/12/14 04:00:18;;;;;;;2.72;1.90;;;;;;;17.63;59.72;95928.91;10399140;28;20076;-30
2023/12/14 04:05:19;;;;;;;3.22;2.15;;;;;;;17.61;59.75;95938.22;10394605;28;20488;-30
2023/12/14 04:10:19;;;;;;;3.63;2.10;;;;;;;17.59;59.83;95947.53;10402913;28;20033;-29
2023/12/14 04:15:20;;;;;;;2.93;2.27;;;;;;;17.61;59.90;95955.94;10404735;28;20048;-30
2023/12/14 04:20:20;;;;;;;3.03;2.15;;;;;;;17.63;59.74;95964.34;10402721;28;20297;-30
2023/12/14 04:25:20;;;;;;;3.65;1.90;;;;;;;17.59;60.18;95968.59;10404550;28;20079;-30
2023/12/14 04:30:21;;;;;;;3.47;1.87;;;;;;;17.61;59.92;95981.25;10392401;28;20729;-29
2023/12/14 04:35:24;;;;;;;2.93;1.90;;;;;;;17.65;60.35;95985.44;10397403;28;20385;-30
2023/12/14 04:40:24;;;;;;;3.40;2.13;;;;;;;17.61;59.77;95993.91;10394013;28;20422;-31
2023/12/14 04:45:24;;;;;;;2.65;1.70;;;;;;;17.69;58.71;95995.53;10390209;28;20048;-29
2023/12/14 04:50:25;;;;;;;4.47;1.83;;;;;;;17.70;58.58;95997.22;10400940;28;20025;-30
2023/12/14 04:55:25;;;;;;;3.20;2.00;;;;;;;17.73;58.93;96006.47;10402010;28;20045;-31
2023/12/14 05:00:26;;;;;;;4.50;2.03;;;;;;;17.74;59.02;96008.97;10404885;28;20399;-30
2023/12/14 05:05:26;;;;;;;4.53;2.23;;;;;;;17.66;58.53;95997.25;10400408;28;20388;-31
2023/12/14 05:10:26;;;;;;;4.13;2.20;;;;;;;17.76;59.43;96027.50;10397935;28;20479;-30
2023/12/14 05:15:27;;;;;;;6.17;2.47;;;;;;;17.72;58.93;96036.00;10404863;28;20041;-29
2023/12/14 05:20:27;;;;;;;4.83;2.90;;;;;;;17.77;58.25;96056.22;10396280;28;20045;-30
2023/12/14 05:25:27;;;;;;;6.53;2.80;;;;;;;17.77;58.96;96067.19;10393738;28;20171;-30
2023/12/14 05:30:28;;;;;;;9.33;3.03;;;;;;;17.77;58.77;96074.78;10388608;28;20037;-29
2023/12/14 05:35:28;;;;;;;5.53;3.50;;;;;;;17.77;59.00;96079.00;10398765;28;20030;-30
2023/12/14 05:40:29;;;;;;;5.90;3.50;;;;;;;17.74;59.09;96087.44;10391681;28;20030;-30
2023/12/14 05:45:30;;;;;;;9.57;3.87;;;;;;;17.74;58.67;96090.00;10375750;28;20636;-29
2023/12/14 05:50:31;;;;;;;10.38;4.05;;;;;;;17.77;58.31;96095.06;10392938;28;20041;-29
2023/12/14 05:55:31;;;;;;;6.47;3.58;;;;;;;17.70;57.56;96102.69;10395689;28;20041;-30
2023/12/14 06:00:33;;;;;;;8.73;3.77;;;;;;;17.69;57.10;96113.66;10401092;28;20414;-29
2023/12/14 06:05:33;;;;;;;9.88;4.00;;;;;;;17.80;56.74;96124.53;10394645;28;20055;-30
2023/12/14 06:10:34;;;;;;;8.87;4.43;;;;;;;17.84;57.02;96138.88;10398283;28;20033;-30
2023/12/14 06:15:34;;;;;;;14.97;5.50;;;;;;;17.83;57.62;96149.88;10391675;28;20026;-30
2023/12/14 06:20:34;;;;;;;12.90;7.30;;;;;;;17.85;57.75;96160.81;10406713;28;20774;-30
2023/12/14 06:25:35;;;;;;;10.23;6.17;;;;;;;17.82;57.00;96166.72;10397701;28;20033;-29
2023/12/14 06:30:35;;;;;;;10.77;6.20;;;;;;;17.59;55.35;96181.19;10396981;28;20041;-30
2023/12/14 06:35:35;;;;;;;25.87;7.23;;;;;;;17.70;56.39;96196.34;10395127;28;20041;-29
2023/12/14 06:40:36;;;;;;;15.30;7.87;;;;;;;17.71;56.80;96195.50;10404203;28;20029;-29
2023/12/14 06:45:37;;;;;;;16.50;7.65;;;;;;;17.80;56.95;96205.56;10401066;28;20703;-30
2023/12/14 06:50:38;;;;;;;18.02;8.27;;;;;;;17.77;57.24;96214.03;10400714;28;20116;-30
2023/12/14 06:55:39;;;;;;;15.75;8.27;;;;;;;17.78;56.65;96217.41;10395002;28;20038;-30
2023/12/14 07:00:41;;;;;;;13.40;7.80;;;;;;;17.78;56.93;96222.47;10401533;28;20021;-31
2023/12/14 07:05:42;;;;;;;15.90;8.15;;;;;;;17.78;56.97;96232.59;10407519;28;20072;-30
2023/12/14 07:10:42;;;;;;;12.83;7.30;;;;;;;17.84;56.94;96243.53;10404388;28;20059;-30
2023/12/14 07:15:43;;;;;;;13.15;7.47;;;;;;;17.87;56.76;96247.72;10402378;28;20033;-29
2023/12/14 07:20:43;;;;;;;14.40;8.27;;;;;;;17.89;57.23;96261.22;10400075;28;20064;-31
2023/12/14 07:25:44;;;;;;;16.17;7.93;;;;;;;17.92;57.20;96272.19;10409958;28;20555;-30
2023/12/14 07:30:46;;;;;;;13.13;7.60;;;;;;;17.92;57.54;96279.78;10404859;28;20381;-30
2023/12/14 07:35:46;;;;;;;18.85;8.02;;;;;;;17.91;57.25;96292.47;10404454;28;20551;-30
2023/12/14 07:40:47;;;;;;;17.08;8.18;;;;;;;17.87;57.44;96298.38;10393705;28;20116;-30
2023/12/14 07:45:47;;;;;;;17.03;8.13;;;;;;;17.86;57.63;96305.16;10399097;28;20040;-30
2023/12/14 07:50:48;;;;;;;16.53;8.23;;;;;;;17.82;57.27;96310.25;10401894;28;20168;-29
2023/12/14 07:55:48;;;;;;;16.98;7.45;;;;;;;17.84;57.11;96323.72;10389935;28;20034;-29
2023/12/14 08:00:49;;;;;;;20.93;8.77;;;;;;;17.81;57.25;96332.16;10412291;28;20025;-29
2023/12/14 08:05:49;;;;;;;12.33;7.77;;;;;;;17.83;57.21;96337.25;10397113;28;20287;-29
2023/12/14 08:10:50;;;;;;;14.40;6.97;;;;;;;17.80;57.03;96352.41;10395248;28;20037;-30
2023/12/14 08:15:50;;;;;;;15.03;6.63;;;;;;;17.80;57.03;96363.41;10416685;28;20102;-30
2023/12/14 08:20:55;;;;;;;9.50;6.88;;;;;;;17.75;56.97;96369.34;10396695;28;20033;-30
2023/12/14 08:25:59;;;;;;;12.13;6.10;;;;;;;17.82;56.83;96381.13;10406395;28;20026;-30
2023/12/14 08:31:02;;;;;;;16.08;6.97;;;;;;;17.80;57.05;96387.88;10391951;28;20030;-30
2023/12/14 08:36:02;;;;;;;13.98;6.70;;;;;;;17.80;56.67;96403.91;10409939;28;20586;-29
2023/12/14 08:41:03;;;;;;;10.38;6.40;;;;;;;17.80;56.90;96416.56;10391582;28;20034;-29
2023/12/14 08:46:03;;;;;;;15.88;6.30;;;;;;;17.79;56.65;96426.69;10407335;28;20033;-29
2023/12/14 08:51:04;;;;;;;12.27;6.35;;;;;;;17.80;56.71;96439.38;10401206;28;20035;-31
2023/12/14 08:56:05;;;;;;;8.90;5.13;;;;;;;17.81;56.46;96447.78;10384341;28;20037;-29
2023/12/14 09:01:06;;;;;;;11.45;5.78;;;;;;;17.80;56.76;96453.69;10398031;28;20541;-30
2023/12/14 09:06:06;;;;;;;10.30;5.70;;;;;;;17.81;56.42;96465.50;10402243;28;20032;-30
2023/12/14 09:11:07;;;;;;;9.75;6.05;;;;;;;17.77;56.45;96479.91;10405919;28;20026;-30
2023/12/14 09:16:08;;;;;;;10.95;4.97;;;;;;;17.79;56.42;96490.84;10394756;28;20032;-30
2023/12/14 09:21:08;;;;;;;8.77;5.35;;;;;;;17.80;56.26;96499.28;10395288;28;20073;-30
2023/12/14 09:26:08;;;;;;;12.57;5.43;;;;;;;17.76;56.24;96503.50;10406699;28;20071;-30
2023/12/14 09:31:09;;;;;;;8.47;5.50;;;;;;;17.78;56.39;96503.50;10402827;28;20492;-30
2023/12/14 09:36:09;;;;;;;6.85;4.30;;;;;;;17.79;56.34;96515.31;10396032;28;20037;-30
2023/12/14 09:41:09;;;;;;;8.13;4.83;;;;;;;17.78;56.22;96511.09;10383982;28;20488;-29
2023/12/14 09:46:11;;;;;;;6.03;4.40;;;;;;;17.79;56.28;96527.97;10397122;28;20377;-31
2023/12/14 09:51:12;;;;;;;8.77;4.38;;;;;;;17.77;56.24;96529.69;10395419;28;20037;-29
2023/12/14 09:56:12;;;;;;;6.80;4.20;;;;;;;17.79;55.56;96533.06;10389657;28;20510;-30
2023/12/14 10:01:27;;;;;;;10.70;4.20;;;;;;;17.75;56.21;96547.41;10398401;28;20464;-31
2023/12/14 10:06:28;;;;;;;8.18;4.72;;;;;;;17.75;56.68;96547.41;10397834;28;20296;-31
2023/12/14 10:11:28;;;;;;;8.23;4.65;;;;;;;17.79;56.12;96554.16;10389434;28;20041;-30
2023/12/14 10:16:30;;;;;;;6.57;3.80;;;;;;;17.82;56.02;96563.47;10386799;28;20121;-30
2023/12/14 10:21:31;;;;;;;10.30;4.25;;;;;;;17.82;56.09;96571.88;10399407;28;20722;-31
2023/12/14 10:26:31;;;;;;;6.43;3.77;;;;;;;17.89;56.03;96580.31;10393869;28;20046;-30
2023/12/14 10:31:32;;;;;;;5.00;3.03;;;;;;;17.93;56.67;96582.03;10393785;28;20041;-29
2023/12/14 10:36:32;;;;;;;6.60;4.05;;;;;;;18.01;57.25;96585.41;10403975;28;20300;-31
2023/12/14 10:41:33;;;;;;;10.82;4.15;;;;;;;18.05;56.95;96589.59;10397639;28;20034;-29
2023/12/14 10:46:34;;;;;;;11.50;4.55;;;;;;;18.16;57.17;96598.88;10404385;28;20038;-30
2023/12/14 10:51:37;;;;;;;9.55;4.40;;;;;;;18.24;57.07;96603.97;10403901;28;20539;-31
2023/12/14 10:56:37;;;;;;;12.82;4.55;;;;;;;18.29;56.94;96618.34;10404317;28;20037;-30
2023/12/14 11:01:39;;;;;;;8.43;4.37;;;;;;;18.27;56.93;96622.56;10400446;28;20033;-29
2023/12/14 11:06:40;;;;;;;6.32;3.90;;;;;;;18.20;56.85;96633.53;10405629;28;20763;-30
2023/12/14 11:11:59;;;;;;;7.30;3.85;;;;;;;18.16;56.71;96636.06;10400555;28;20160;-30
2023/12/14 11:17:06;;;;;;;7.22;3.67;;;;;;;18.10;56.91;96638.59;10402342;28;20052;-29
2023/12/14 11:22:06;;;;;;;6.00;3.72;;;;;;;18.10;56.84;96638.59;10402262;28;20033;-30
2023/12/14 11:27:07;;;;;;;9.32;4.38;;;;;;;18.13;56.65;96644.50;10408677;28;20041;-29
2023/12/14 11:32:08;;;;;;;8.35;3.53;;;;;;;18.14;56.58;96658.00;10402262;28;20041;-30
2023/12/14 11:37:08;;;;;;;4.90;3.23;;;;;;;18.10;56.71;96654.66;10400385;28;20041;-30
2023/12/14 11:42:10;;;;;;;6.33;3.60;;;;;;;18.03;56.66;96654.63;10404969;28;20037;-30
2023/12/14 11:47:10;;;;;;;4.63;3.30;;;;;;;18.06;56.56;96664.75;10395383;28;20079;-30
2023/12/14 11:52:11;;;;;;;10.50;3.22;;;;;;;18.08;56.57;96683.34;10394846;28;20400;-30
2023/12/14 11:57:11;;;;;;;7.30;3.42;;;;;;;18.11;56.91;96684.22;10398001;28;20048;-30
2023/12/14 12:02:12;;;;;;;7.63;3.83;;;;;;;18.09;56.86;96685.88;10403672;28;20411;-31
2023/12/14 12:07:12;;;;;;;9.53;3.70;;;;;;;18.16;56.74;96691.81;10394304;28;20116;-30
2023/12/14 12:12:13;;;;;;;7.70;3.90;;;;;;;18.08;57.34;96717.13;10402589;28;20044;-29
2023/12/14 12:17:14;;;;;;;5.88;3.95;;;;;;;18.07;57.19;96712.06;10397425;28;20026;-30
2023/12/14 12:22:14;;;;;;;11.40;5.50;;;;;;;18.06;57.58;96716.28;10399109;28;20036;-29
2023/12/14 12:27:15;;;;;;;9.70;6.27;;;;;;;18.09;57.27;96723.03;10395435;28;20041;-30
2023/12/14 12:32:15;;;;;;;12.93;7.20;;;;;;;18.08;57.37;96728.97;10387643;28;20085;-29
2023/12/14 12:37:15;;;;;;;14.83;8.13;;;;;;;18.06;57.63;96733.16;10394927;28;20125;-30
2023/12/14 12:42:16;;;;;;;20.53;8.60;;;;;;;18.08;57.09;96728.97;10388748;28;20099;-29
2023/12/14 12:47:16;;;;;;;17.07;9.00;;;;;;;18.08;57.02;96732.31;10394333;28;20042;-30
2023/12/14 12:52:16;;;;;;;15.83;9.10;;;;;;;18.09;56.80;96734.00;10394605;28;20049;-31
2023/12/14 12:57:17;;;;;;;21.30;9.20;;;;;;;18.10;56.78;96733.19;10401774;28;20042;-29
2023/12/14 13:02:18;;;;;;;17.98;8.15;;;;;;;18.11;56.88;96741.63;10400988;28;20044;-30
2023/12/14 13:07:18;;;;;;;16.73;8.75;;;;;;;18.07;56.84;96745.84;10389454;28;20030;-29
2023/12/14 13:12:19;;;;;;;13.55;8.82;;;;;;;18.07;56.79;96752.59;10395158;28;20034;-30
2023/12/14 13:17:19;;;;;;;15.20;8.90;;;;;;;18.05;56.82;96760.19;10396477;28;20044;-30
2023/12/14 13:22:19;;;;;;;14.45;8.35;;;;;;;18.05;56.67;96759.34;10386377;28;20030;-30
2023/12/14 13:27:20;;;;;;;14.07;8.03;;;;;;;18.05;56.73;96756.81;10393513;28;20034;-30
2023/12/14 13:32:20;;;;;;;12.40;7.50;;;;;;;18.04;56.71;96761.03;10395626;28;20844;-30
2023/12/14 13:37:20;;;;;;;12.57;7.70;;;;;;;18.04;56.54;96771.16;10387867;28;20029;-29
2023/12/14 13:42:21;;;;;;;15.63;9.00;;;;;;;18.04;56.54;96782.97;10391590;28;20037;-29
2023/12/14 13:47:22;;;;;;;14.38;7.53;;;;;;;18.04;56.60;96777.91;10392266;28;20111;-29
2023/12/14 13:52:22;;;;;;;14.18;8.27;;;;;;;18.05;56.51;96785.53;10389714;28;20046;-31
2023/12/14 13:57:23;;;;;;;11.43;7.27;;;;;;;18.05;56.51;96797.34;10384799;28;20404;-29
2023/12/14 14:02:25;;;;;;;15.07;6.73;;;;;;;18.06;56.40;96804.09;10386443;28;20407;-30
2023/12/14 14:07:25;;;;;;;13.50;7.07;;;;;;;18.07;56.17;96813.41;10386505;28;20076;-30
2023/12/14 14:12:26;;;;;;;16.92;7.60;;;;;;;18.07;56.35;96824.38;10386603;28;20041;-29
2023/12/14 14:17:26;;;;;;;11.40;7.07;;;;;;;18.05;56.45;96836.19;10383510;28;20034;-30
2023/12/14 14:22:27;;;;;;;13.82;7.32;;;;;;;18.04;56.50;96843.78;10389158;28;20059;-30
2023/12/14 14:27:27;;;;;;;12.00;6.83;;;;;;;17.99;56.38;96855.59;10388037;28;20038;-30
2023/12/14 14:32:28;;;;;;;12.85;6.45;;;;;;;17.85;56.54;96837.81;10383301;28;20046;-30
2023/12/14 14:37:28;;;;;;;12.23;7.28;;;;;;;18.00;56.48;96870.78;10386159;28;20044;-30
2023/12/14 14:42:29;;;;;;;11.60;7.43;;;;;;;18.01;56.39;96874.19;10385053;28;20034;-29
2023/12/14 14:47:30;;;;;;;12.88;6.85;;;;;;;18.02;56.55;96889.41;10384943;28;20030;-29
2023/12/14 14:52:31;;;;;;;10.93;6.47;;;;;;;18.00;56.74;96895.28;10394393;28;20093;-30
2023/12/14 14:57:33;;;;;;;12.00;7.22;;;;;;;17.95;57.33;96909.59;10384434;28;20049;-31
2023/12/14 15:02:33;;;;;;;10.48;7.18;;;;;;;17.90;58.02;96921.41;10380297;28;20052;-29
2023/12/14 15:07:34;;;;;;;13.63;8.23;;;;;;;17.91;58.60;96928.16;10404884;28;20037;-30
2023/12/14 15:12:36;;;;;;;14.80;8.57;;;;;;;17.95;58.34;96935.78;10391898;28;20026;-30
2023/12/14 15:17:37;;;;;;;13.65;8.35;;;;;;;18.02;57.86;96951.88;10390733;28;20122;-30
2023/12/14 15:22:37;;;;;;;11.13;6.65;;;;;;;18.00;57.81;96941.72;10387718;28;20567;-29
2023/12/14 15:27:37;;;;;;;14.73;8.20;;;;;;;18.02;57.78;96947.66;10393920;28;20040;-29
2023/12/14 15:32:38;;;;;;;12.10;8.40;;;;;;;18.05;57.72;96967.06;10400473;28;20500;-31
2023/12/14 15:37:38;;;;;;;13.37;7.40;;;;;;;18.05;57.91;96997.47;10398797;28;20559;-29
2023/12/14 15:42:39;;;;;;;16.43;7.57;;;;;;;18.01;57.98;97010.97;10383884;28;20375;-30
2023/12/14 15:47:39;;;;;;;12.57;6.77;;;;;;;18.05;58.41;97018.59;10401200;28;20036;-30
2023/12/14 15:52:39;;;;;;;13.47;7.23;;;;;;;18.01;58.87;97031.25;10385922;28;20040;-30
2023/12/14 15:57:40;;;;;;;37.70;8.20;;;;;;;18.05;58.19;97040.53;10386204;28;20057;-30
2023/12/14 16:02:41;;;;;;;25.08;7.18;;;;;;;17.98;55.64;97033.78;10384922;28;20457;-29
2023/12/14 16:07:41;;;;;;;20.27;6.27;;;;;;;17.97;55.70;97040.50;10380247;28;20497;-29
2023/12/14 16:12:41;;;;;;;16.17;6.37;;;;;;;18.00;56.10;97054.88;10397779;28;20411;-30
2023/12/14 16:17:42;;;;;;;17.73;6.37;;;;;;;17.99;56.81;97065.88;10399728;28;20037;-30
2023/12/14 16:22:42;;;;;;;15.90;5.90;;;;;;;18.01;57.43;97079.38;10401056;28;20044;-30
2023/12/14 16:27:44;;;;;;;12.55;6.22;;;;;;;18.05;57.70;97078.56;10377486;28;20034;-30
2023/12/14 16:32:44;;;;;;;13.13;5.97;;;;;;;18.07;57.03;97090.41;10392562;28;20040;-30
2023/12/14 16:37:44;;;;;;;19.70;6.40;;;;;;;18.09;57.44;97085.34;10386127;28;20053;-30
2023/12/14 16:42:45;;;;;;;11.73;5.50;;;;;;;18.13;56.98;97094.66;10390480;28;20034;-29
2023/12/14 16:47:45;;;;;;;12.90;6.20;;;;;;;18.17;57.09;97104.00;10394072;28;20030;-30
2023/12/14 16:52:45;;;;;;;14.27;6.37;;;;;;;18.14;57.75;97103.94;10381707;28;20037;-30
2023/12/14 16:57:46;;;;;;;12.97;6.37;;;;;;;18.13;58.54;97118.31;10386793;28;20034;-29
2023/12/14 17:02:46;;;;;;;17.03;6.63;;;;;;;18.07;57.43;97125.03;10381804;28;20037;-30
2023/12/14 17:07:47;;;;;;;16.33;7.40;;;;;;;17.98;58.83;97127.50;10389274;28;20045;-30
2023/12/14 17:12:47;;;;;;;16.23;6.70;;;;;;;18.00;58.11;97129.19;10392588;28;20488;-30
2023/12/14 17:17:47;;;;;;;18.07;7.50;;;;;;;17.99;59.10;97142.69;10390487;28;20284;-29
2023/12/14 17:22:48;;;;;;;14.73;7.53;;;;;;;18.01;58.98;97157.91;10393848;28;20028;-29
2023/12/14 17:27:48;;;;;;;12.80;6.27;;;;;;;17.99;58.52;97164.66;10385182;28;20034;-30
2023/12/14 17:32:49;;;;;;;12.00;6.40;;;;;;;17.99;58.92;97174.81;10400155;28;20033;-29
2023/12/14 17:37:49;;;;;;;11.73;6.07;;;;;;;17.99;58.86;97180.69;10386301;28;20028;-29
2023/12/14 17:42:49;;;;;;;13.87;6.33;;;;;;;17.99;59.10;97192.53;10402653;28;20029;-30
2023/12/14 17:47:50;;;;;;;15.40;6.30;;;;;;;17.98;58.85;97198.44;10395805;28;20033;-30
2023/12/14 17:52:50;;;;;;;17.97;6.50;;;;;;;18.00;58.77;97197.59;10387132;28;20361;-30
2023/12/14 17:57:50;;;;;;;12.63;6.77;;;;;;;18.01;58.68;97201.00;10384465;28;20836;-29
2023/12/14 18:02:51;;;;;;;14.27;5.53;;;;;;;18.06;58.04;97201.84;10396738;28;20041;-30
2023/12/14 18:07:53;;;;;;;8.20;5.43;;;;;;;18.08;58.15;97205.28;10379001;28;20115;-29
2023/12/14 18:12:58;;;;;;;10.45;6.05;;;;;;;18.12;58.44;97217.13;10382020;28;20035;-30
2023/12/14 18:17:59;;;;;;;12.95;7.40;;;;;;;18.21;58.36;97228.22;10375765;28;20474;-30
2023/12/14 18:22:59;;;;;;;19.90;9.43;;;;;;;18.30;58.70;97232.53;10379222;28;20038;-29
2023/12/14 18:28:01;;;;;;;17.60;9.00;;;;;;;18.40;58.63;97239.41;10367258;28;20022;-29
2023/12/14 18:33:02;;;;;;;18.35;10.35;;;;;;;18.46;60.12;97239.44;10376379;28;20292;-29
2023/12/14 18:38:03;;;;;;;21.27;10.57;;;;;;;18.54;58.74;97250.50;10375693;28;20049;-30
2023/12/14 18:43:03;;;;;;;22.63;11.27;;;;;;;18.57;58.60;97258.13;10374801;28;20090;-29
2023/12/14 18:48:04;;;;;;;19.10;10.97;;;;;;;18.52;58.52;97255.56;10384296;28;20480;-30
2023/12/14 18:53:08;;;;;;;22.13;12.10;;;;;;;18.44;58.30;97269.88;10387475;28;20034;-30
2023/12/14 18:58:10;;;;;;;25.23;12.80;;;;;;;18.41;58.64;97279.97;10394052;28;20037;-30
2023/12/14 19:03:10;;;;;;;22.42;10.55;;;;;;;18.39;58.29;97285.84;10410431;28;20053;-29
2023/12/14 19:08:12;;;;;;;22.33;10.73;;;;;;;18.32;57.68;97299.31;10409600;28;20045;-30
2023/12/14 19:13:12;;;;;;;17.30;10.05;;;;;;;18.28;58.14;97307.69;10405824;28;20072;-30
2023/12/14 19:18:12;;;;;;;18.57;11.33;;;;;;;18.29;58.54;97316.97;10410636;28;20132;-29
2023/12/14 19:23:13;;;;;;;19.77;10.83;;;;;;;18.27;58.59;97331.34;10401099;28;20667;-30
2023/12/14 19:28:13;;;;;;;22.42;10.90;;;;;;;18.31;58.42;97336.47;10405535;28;20310;-30
2023/12/14 19:33:14;;;;;;;22.43;11.37;;;;;;;18.32;58.24;97350.03;10411654;28;20048;-31
2023/12/14 19:38:15;;;;;;;20.52;11.85;;;;;;;18.30;58.14;97354.19;10410006;28;20442;-30
2023/12/14 19:43:15;;;;;;;22.33;11.50;;;;;;;18.21;59.16;97376.88;10406179;28;20450;-30
2023/12/14 19:48:16;;;;;;;20.93;10.93;;;;;;;18.24;58.92;97382.00;10402864;28;20423;-29
2023/12/14 19:53:16;;;;;;;18.40;11.30;;;;;;;18.18;59.20;97390.34;10406442;28;20495;-30
2023/12/14 19:58:16;;;;;;;22.57;11.40;;;;;;;18.29;58.58;97399.00;10405975;28;20034;-29
2023/12/14 20:03:17;;;;;;;18.87;10.27;;;;;;;18.26;58.59;97395.53;10398271;28;20288;-29
2023/12/14 20:08:21;;;;;;;23.50;11.85;;;;;;;18.29;58.65;97406.59;10397014;28;20459;-29
2023/12/14 20:13:22;;;;;;;19.25;10.70;;;;;;;18.31;58.39;97424.34;10398941;28;20104;-29
2023/12/14 20:18:23;;;;;;;17.90;10.32;;;;;;;18.27;58.45;97431.06;10399654;28;20038;-29
2023/12/14 20:23:23;;;;;;;20.80;10.80;;;;;;;18.27;58.58;97435.25;10389621;28;20038;-30
2023/12/14 20:28:24;;;;;;;20.63;10.47;;;;;;;18.27;58.36;97447.94;10400216;28;20057;-29
2023/12/14 20:33:24;;;;;;;17.73;10.33;;;;;;;18.21;59.40;97451.25;10408190;28;20065;-29
2023/12/14 20:38:24;;;;;;;18.43;10.40;;;;;;;18.27;58.12;97455.53;10408642;28;20296;-30
2023/12/14 20:43:25;;;;;;;16.17;8.70;;;;;;;18.25;58.15;97472.41;10396563;28;20298;-30
2023/12/14 20:48:25;;;;;;;19.80;9.27;;;;;;;18.29;58.01;97469.06;10402836;28;20044;-29
2023/12/14 20:53:26;;;;;;;17.30;9.88;;;;;;;18.28;58.25;97482.59;10394587;28;20037;-29
2023/12/14 20:58:26;;;;;;;16.65;8.82;;;;;;;18.27;58.17;97496.09;10397284;28;20041;-31
2023/12/14 21:03:26;;;;;;;14.63;9.43;;;;;;;18.26;58.35;97509.59;10396770;28;20038;-30
2023/12/14 21:08:27;;;;;;;16.30;9.77;;;;;;;18.24;58.21;97511.28;10400886;28;20081;-29
2023/12/14 21:13:29;;;;;;;13.10;7.43;;;;;;;18.24;57.83;97521.41;10403808;28;20305;-29
2023/12/14 21:18:30;;;;;;;17.33;9.30;;;;;;;18.22;58.10;97533.19;10406829;28;20076;-29
2023/12/14 21:23:30;;;;;;;14.90;9.50;;;;;;;18.20;58.39;97545.00;10402154;28;20080;-30
2023/12/14 21:28:31;;;;;;;12.23;8.60;;;;;;;18.18;58.51;97552.56;10402026;28;20026;-29
2023/12/14 21:33:31;;;;;;;13.88;7.97;;;;;;;18.18;58.29;97559.34;10400194;28;20091;-31
2023/12/14 21:38:32;;;;;;;13.37;8.47;;;;;;;18.14;58.80;97570.25;10400827;28;20029;-30
2023/12/14 21:43:32;;;;;;;14.97;8.00;;;;;;;18.17;58.38;97576.22;10395119;28;20844;-30
2023/12/14 21:48:32;;;;;;;12.97;7.50;;;;;;;18.22;58.14;97588.94;10402564;28;20303;-30
2023/12/14 21:53:33;;;;;;;10.23;7.03;;;;;;;18.23;58.14;97600.78;10398015;28;20055;-30
2023/12/14 21:58:33;;;;;;;12.53;7.13;;;;;;;18.16;58.42;97604.91;10386360;28;21067;-29
2023/12/14 22:03:34;;;;;;;11.37;7.10;;;;;;;18.21;58.07;97615.13;10395020;28;20033;-29
2023/12/14 22:08:34;;;;;;;10.73;7.93;;;;;;;18.20;58.05;97621.03;10399368;28;20041;-30
2023/12/14 22:13:34;;;;;;;11.10;7.23;;;;;;;18.17;58.37;97623.53;10398415;28;20488;-29
2023/12/14 22:18:35;;;;;;;8.73;6.47;;;;;;;18.16;57.89;97630.25;10390696;28;20032;-30
2023/12/14 22:23:36;;;;;;;11.05;6.70;;;;;;;18.16;58.25;97639.56;10395571;28;20049;-30
2023/12/14 22:28:36;;;;;;;9.77;6.10;;;;;;;18.16;57.95;97644.63;10393791;28;20048;-31
2023/12/14 22:33:37;;;;;;;13.07;6.70;;;;;;;18.18;58.00;97663.25;10391875;28;20033;-29
2023/12/14 22:38:37;;;;;;;14.37;6.93;;;;;;;18.17;58.14;97666.63;10396830;28;20034;-29
2023/12/14 22:43:38;;;;;;;16.13;5.83;;;;;;;18.04;59.05;97663.03;10398134;28;20354;-30
2023/12/14 22:48:38;;;;;;;9.82;6.35;;;;;;;17.99;59.18;97679.81;10403876;28;20366;-31
2023/12/14 22:53:38;;;;;;;7.80;5.53;;;;;;;17.96;58.17;97682.31;10401759;28;20043;-30
2023/12/14 22:58:39;;;;;;;9.90;6.13;;;;;;;18.00;58.58;97699.25;10395952;28;20032;-29
2023/12/14 23:03:39;;;;;;;9.17;6.43;;;;;;;18.02;58.83;97702.69;10403368;28;20480;-30
2023/12/14 23:08:39;;;;;;;10.77;6.03;;;;;;;18.01;58.95;97716.16;10394576;28;20120;-30